Radville, Canada
Current Conditions -  °F | °C
As of 6:15 AM on Tuesday 21 Oct 2014 (Local Time) from KD50 Reporting Station
Clear Clear  
Wind Chill: 40°   Ceiling: Unl
Heat Index: 46°   Visibility: 10mi
Dew Point: 39°   Wind: 14mph
Humidity: 76%   Direction: 190°S
Pressure: 29.75"   Gusts: NA
Location:  49.47°N, 104.28°W
Report Text: KD50 211215Z AUTO 19012KT 10SM CLR 08/04 A2975 RMK AO2
Loading
Personal Weather Stations






























Interactive Weather Map
Tropical Storm Tracking
New forecast layout! Learn more

10-Day Weather Forecast

Advertisements
Track Severe Weather on mobile